Time;durP1;ratioP1;P1;durP2;ratioP2;P2;SDS_P1;SDS_P2;PMS_P1;PMS_P2;Temp;Humidity;BMP_temperature;BMP_pressure;BME280_temperature;BME280_humidity;BME280_pressure;Samples;Min_cycle;Max_cycle;Signal;HPM_P1;HPM_P2
2023/12/11 00:00:46;;;;;;;47.90;10.95;;;11.10;93.60;;;;;;5037760;28;20496;-79
2023/12/11 00:03:11;;;;;;;42.70;9.90;;;11.10;93.60;;;;;;5044421;28;20052;-79
2023/12/11 00:05:41;;;;;;;46.95;9.45;;;11.10;93.50;;;;;;5058384;28;20397;-79
2023/12/11 00:08:07;;;;;;;40.30;8.50;;;11.00;93.60;;;;;;5062006;28;20017;-79
2023/12/11 00:10:32;;;;;;;43.08;10.60;;;11.00;93.60;;;;;;5061500;28;20044;-79
2023/12/11 00:12:58;;;;;;;37.50;10.82;;;11.00;93.50;;;;;;5019072;28;20021;-79
2023/12/11 00:15:24;;;;;;;42.78;7.97;;;11.00;93.40;;;;;;5016064;28;20104;-79
2023/12/11 00:17:49;;;;;;;45.20;7.57;;;11.00;93.50;;;;;;5013794;28;20033;-79
2023/12/11 00:20:15;;;;;;;38.50;7.93;;;11.00;93.50;;;;;;5023624;28;20500;-79
2023/12/11 00:22:41;;;;;;;38.20;7.38;;;11.10;93.40;;;;;;5040983;28;20095;-79
2023/12/11 00:25:07;;;;;;;39.53;7.53;;;11.10;93.00;;;;;;5038885;28;20033;-79
2023/12/11 00:27:32;;;;;;;39.83;9.15;;;11.10;93.10;;;;;;5040937;28;20455;-79
2023/12/11 00:29:59;;;;;;;40.88;8.05;;;11.00;93.20;;;;;;5040841;28;20052;-79
2023/12/11 00:32:25;;;;;;;38.65;7.43;;;11.00;93.20;;;;;;5030328;28;20053;-79
2023/12/11 00:34:50;;;;;;;46.20;8.90;;;11.00;93.40;;;;;;5034704;28;20076;-79
2023/12/11 00:37:17;;;;;;;41.28;7.47;;;11.10;93.30;;;;;;5026416;28;20083;-79
2023/12/11 00:39:42;;;;;;;43.47;9.27;;;11.10;93.20;;;;;;5034237;28;20122;-79
2023/12/11 00:42:08;;;;;;;36.55;8.30;;;11.10;93.30;;;;;;5040503;28;20099;-77
2023/12/11 00:44:37;;;;;;;43.10;9.73;;;11.10;93.30;;;;;;5036242;28;20555;-77
2023/12/11 00:47:04;;;;;;;38.33;9.50;;;11.10;93.20;;;;;;5037976;28;20108;-78
2023/12/11 00:49:30;;;;;;;37.92;7.57;;;11.10;93.10;;;;;;5037866;28;20035;-78
2023/12/11 00:51:55;;;;;;;47.88;9.05;;;11.20;93.20;;;;;;5025769;28;20071;-77
2023/12/11 00:54:21;;;;;;;40.40;7.53;;;11.30;93.10;;;;;;5031294;28;20063;-78
2023/12/11 00:56:47;;;;;;;41.60;8.35;;;11.20;93.00;;;;;;5043583;28;20457;-78
2023/12/11 00:59:13;;;;;;;41.85;7.18;;;11.20;93.10;;;;;;5035831;28;20025;-78
2023/12/11 01:01:38;;;;;;;42.15;8.10;;;11.10;93.10;;;;;;5040088;28;20028;-78
2023/12/11 01:04:04;;;;;;;47.17;8.85;;;11.20;92.90;;;;;;5042990;28;20308;-78
2023/12/11 01:06:30;;;;;;;43.65;8.18;;;11.20;92.90;;;;;;5020462;28;20640;-78
2023/12/11 01:08:56;;;;;;;43.50;8.25;;;11.30;92.90;;;;;;5023146;28;20017;-79
2023/12/11 01:11:21;;;;;;;37.28;7.13;;;11.30;92.90;;;;;;5024146;28;20029;-78
2023/12/11 01:13:47;;;;;;;32.47;8.23;;;11.30;92.80;;;;;;5021327;28;20025;-78
2023/12/11 01:16:13;;;;;;;42.13;7.72;;;11.30;92.60;;;;;;5022009;28;20060;-78
2023/12/11 01:18:38;;;;;;;36.28;7.30;;;11.30;92.70;;;;;;5023307;28;20028;-78
2023/12/11 01:21:04;;;;;;;40.72;7.35;;;11.30;92.70;;;;;;5021337;28;20037;-78
2023/12/11 01:23:30;;;;;;;36.80;7.93;;;11.30;92.70;;;;;;5017808;28;20049;-78
2023/12/11 01:25:55;;;;;;;37.15;7.15;;;11.40;92.60;;;;;;5020968;28;20244;-78
2023/12/11 01:28:21;;;;;;;42.55;7.53;;;11.40;92.60;;;;;;5019323;28;20418;-78
2023/12/11 01:30:46;;;;;;;41.67;8.70;;;11.40;92.70;;;;;;5023235;28;20094;-78
2023/12/11 01:33:12;;;;;;;29.42;6.43;;;11.40;92.90;;;;;;5017816;28;20442;-78
2023/12/11 01:35:38;;;;;;;39.55;8.25;;;11.50;92.80;;;;;;5021106;28;20021;-78
2023/12/11 01:38:03;;;;;;;41.15;7.63;;;11.50;92.70;;;;;;5038203;28;20470;-78
2023/12/11 01:40:29;;;;;;;32.47;7.13;;;11.50;92.90;;;;;;5027167;28;20041;-78
2023/12/11 01:42:55;;;;;;;32.13;6.15;;;11.40;92.90;;;;;;5028963;28;20445;-79
2023/12/11 01:45:20;;;;;;;41.72;7.78;;;11.50;92.90;;;;;;5032034;28;20390;-79
2023/12/11 01:47:46;;;;;;;34.42;6.82;;;11.40;93.10;;;;;;5042677;28;20025;-78
2023/12/11 01:50:12;;;;;;;36.03;7.50;;;11.50;93.10;;;;;;5037402;28;20381;-78
2023/12/11 01:52:38;;;;;;;41.97;8.02;;;11.50;93.50;;;;;;5039228;28;20021;-78
2023/12/11 01:55:05;;;;;;;37.60;8.10;;;11.40;93.50;;;;;;5042319;28;20044;-78
2023/12/11 01:57:31;;;;;;;38.55;7.05;;;11.40;93.70;;;;;;5040848;28;20119;-78
2023/12/11 01:59:57;;;;;;;43.92;7.28;;;11.40;93.50;;;;;;5031598;28;20121;-78
2023/12/11 02:02:24;;;;;;;37.80;7.00;;;11.40;93.20;;;;;;5019900;28;20455;-79
2023/12/11 02:04:50;;;;;;;46.50;7.78;;;11.50;92.90;;;;;;5020921;28;20370;-78
2023/12/11 02:07:16;;;;;;;38.92;7.22;;;11.50;92.80;;;;;;5044046;28;20028;-78
2023/12/11 02:09:42;;;;;;;35.83;6.60;;;11.50;92.70;;;;;;5036873;28;20027;-78
2023/12/11 02:12:08;;;;;;;33.65;7.40;;;11.50;92.60;;;;;;5042841;28;20029;-78
2023/12/11 02:14:34;;;;;;;39.95;7.85;;;11.60;92.30;;;;;;5027953;28;20129;-78
2023/12/11 02:17:00;;;;;;;32.30;6.88;;;11.50;92.40;;;;;;5036191;28;20025;-78
2023/12/11 02:19:25;;;;;;;38.50;7.60;;;11.60;92.40;;;;;;5032101;28;20381;-78
2023/12/11 02:21:52;;;;;;;31.33;6.80;;;11.60;92.30;;;;;;5040011;28;20025;-78
2023/12/11 02:24:24;;;;;;;39.58;8.07;;;11.60;92.40;;;;;;5041391;28;20405;-78
2023/12/11 02:26:49;;;;;;;39.00;6.95;;;11.60;92.30;;;;;;5035311;28;20028;-78
2023/12/11 02:29:15;;;;;;;38.85;7.47;;;11.60;92.20;;;;;;5039701;28;20023;-78
2023/12/11 02:31:40;;;;;;;35.03;7.90;;;11.60;92.30;;;;;;5036950;28;20119;-80
2023/12/11 02:34:08;;;;;;;37.10;6.88;;;11.50;92.20;;;;;;5041323;28;20056;-77
2023/12/11 02:36:33;;;;;;;33.90;6.85;;;11.60;92.20;;;;;;5030298;28;20037;-79
2023/12/11 02:38:59;;;;;;;33.40;6.45;;;11.60;92.10;;;;;;5035179;28;20056;-79
2023/12/11 02:41:25;;;;;;;45.85;8.05;;;11.60;92.10;;;;;;5028278;28;20029;-79
2023/12/11 02:43:51;;;;;;;28.35;5.25;;;11.60;92.10;;;;;;5035569;28;20032;-79
2023/12/11 02:46:16;;;;;;;34.55;7.47;;;11.60;92.60;;;;;;5036636;28;20087;-77
2023/12/11 02:48:42;;;;;;;35.10;6.80;;;11.50;92.90;;;;;;5030367;28;20044;-77
2023/12/11 02:51:08;;;;;;;35.90;7.20;;;11.50;93.30;;;;;;5034402;28;20032;-77
2023/12/11 02:53:34;;;;;;;36.60;7.47;;;11.50;93.30;;;;;;5036734;28;20024;-77
2023/12/11 02:55:59;;;;;;;37.78;8.15;;;11.50;93.10;;;;;;5040724;28;20390;-77
2023/12/11 02:58:25;;;;;;;26.58;6.35;;;11.50;92.80;;;;;;5033570;28;20633;-77
2023/12/11 03:00:51;;;;;;;29.08;7.60;;;11.50;92.70;;;;;;5034154;28;20040;-77
2023/12/11 03:03:16;;;;;;;37.42;7.60;;;11.50;92.80;;;;;;5031150;28;20025;-76
2023/12/11 03:05:42;;;;;;;32.35;6.10;;;11.40;93.20;;;;;;5027052;28;20626;-77
2023/12/11 03:08:08;;;;;;;33.25;6.82;;;11.40;93.30;;;;;;5021541;28;20043;-77
2023/12/11 03:10:34;;;;;;;33.67;7.05;;;11.40;93.40;;;;;;5016618;28;20474;-79
2023/12/11 03:12:59;;;;;;;35.92;7.18;;;11.40;93.10;;;;;;5040108;28;20021;-79
2023/12/11 03:15:25;;;;;;;34.17;6.78;;;11.40;93.00;;;;;;5035819;28;20077;-79
2023/12/11 03:17:51;;;;;;;35.75;7.55;;;11.40;92.90;;;;;;5039530;28;20155;-79
2023/12/11 03:20:16;;;;;;;39.25;7.35;;;11.40;92.70;;;;;;5036943;28;20478;-79
2023/12/11 03:22:42;;;;;;;31.98;6.43;;;11.30;92.60;;;;;;5038922;28;20100;-79
2023/12/11 03:25:08;;;;;;;39.95;7.15;;;11.40;92.30;;;;;;5035815;28;20030;-79
2023/12/11 03:27:34;;;;;;;34.78;6.72;;;11.50;92.00;;;;;;5034109;28;20056;-79
2023/12/11 03:29:59;;;;;;;36.38;6.90;;;11.40;91.80;;;;;;5026613;28;20056;-79
2023/12/11 03:32:25;;;;;;;33.92;7.78;;;11.40;91.80;;;;;;5024780;28;20467;-77
2023/12/11 03:34:51;;;;;;;38.58;7.28;;;11.50;91.70;;;;;;5028289;28;20025;-79
2023/12/11 03:37:17;;;;;;;36.75;7.35;;;11.50;91.60;;;;;;5032804;28;20298;-79
2023/12/11 03:39:42;;;;;;;26.90;6.68;;;11.50;91.60;;;;;;5028697;28;20413;-79
2023/12/11 03:42:09;;;;;;;38.58;7.13;;;11.40;91.60;;;;;;5020249;28;20067;-79
2023/12/11 03:44:35;;;;;;;34.45;7.90;;;11.40;91.70;;;;;;5020312;28;20104;-78
2023/12/11 03:47:00;;;;;;;36.50;7.13;;;11.50;91.50;;;;;;5042211;28;20116;-78
2023/12/11 03:49:27;;;;;;;29.30;6.13;;;11.50;91.00;;;;;;5032570;28;20029;-79
2023/12/11 03:51:52;;;;;;;29.77;6.38;;;11.50;90.50;;;;;;5014514;28;20034;-78
2023/12/11 03:54:18;;;;;;;34.80;5.80;;;11.50;90.30;;;;;;5008272;28;20041;-78
2023/12/11 03:56:44;;;;;;;30.98;7.90;;;11.60;89.90;;;;;;5020565;28;20037;-78
2023/12/11 03:59:11;;;;;;;36.88;7.18;;;11.60;89.50;;;;;;5018160;28;20548;-78
2023/12/11 04:01:37;;;;;;;33.90;6.90;;;11.60;89.30;;;;;;5018512;28;20037;-78
2023/12/11 04:04:02;;;;;;;42.50;6.93;;;11.60;89.40;;;;;;5021998;28;20079;-79
2023/12/11 04:06:28;;;;;;;36.08;7.13;;;11.60;89.30;;;;;;5017726;28;20452;-78
2023/12/11 04:08:54;;;;;;;30.83;6.45;;;11.60;89.30;;;;;;5020481;28;20534;-78
2023/12/11 04:11:19;;;;;;;30.23;6.13;;;11.60;89.20;;;;;;5017089;28;20431;-79
2023/12/11 04:13:45;;;;;;;35.83;5.97;;;11.60;88.50;;;;;;5010821;28;20104;-78
2023/12/11 04:16:11;;;;;;;31.60;7.03;;;11.70;87.90;;;;;;5016503;28;20045;-78
2023/12/11 04:18:37;;;;;;;26.30;4.90;;;11.70;87.40;;;;;;5018362;28;20466;-78
2023/12/11 04:21:04;;;;;;;26.40;5.88;;;11.70;87.30;;;;;;5015176;28;20032;-78
2023/12/11 04:23:29;;;;;;;29.10;5.97;;;11.70;87.00;;;;;;5018474;28;20059;-78
2023/12/11 04:25:58;;;;;;;23.45;5.68;;;11.70;86.50;;;;;;5016382;28;20045;-78
2023/12/11 04:28:25;;;;;;;25.83;6.03;;;11.70;86.60;;;;;;5018110;28;20056;-78
2023/12/11 04:30:50;;;;;;;24.00;5.20;;;11.60;86.20;;;;;;5021368;28;20041;-78
2023/12/11 04:33:16;;;;;;;24.70;6.25;;;11.60;85.60;;;;;;5017438;28;21335;-78
2023/12/11 04:35:42;;;;;;;24.80;6.07;;;11.70;85.00;;;;;;5015443;28;20462;-78
2023/12/11 04:38:08;;;;;;;26.60;5.18;;;11.70;84.70;;;;;;5020642;28;20563;-78
2023/12/11 04:40:34;;;;;;;22.83;4.85;;;11.60;84.90;;;;;;5019905;28;20033;-77
2023/12/11 04:43:00;;;;;;;29.77;4.90;;;11.60;84.60;;;;;;5021059;28;20018;-78
2023/12/11 04:45:26;;;;;;;25.60;5.30;;;11.60;84.40;;;;;;5024923;28;20049;-79
2023/12/11 04:47:51;;;;;;;27.48;5.65;;;11.50;84.40;;;;;;5037639;28;20473;-79
2023/12/11 04:50:17;;;;;;;26.17;5.15;;;11.50;84.40;;;;;;5033817;28;20060;-79
2023/12/11 04:52:42;;;;;;;23.35;4.38;;;11.50;83.90;;;;;;5038129;28;20041;-78
2023/12/11 04:55:08;;;;;;;21.58;4.47;;;11.50;83.70;;;;;;5036489;28;20032;-79
2023/12/11 04:57:34;;;;;;;22.70;4.25;;;11.50;83.60;;;;;;5036105;28;20348;-78
2023/12/11 04:59:59;;;;;;;24.05;5.18;;;11.50;83.60;;;;;;5042087;28;20029;-79
2023/12/11 05:02:25;;;;;;;24.17;4.90;;;11.50;83.30;;;;;;5055067;28;20349;-79
2023/12/11 05:04:51;;;;;;;17.92;4.70;;;11.50;83.30;;;;;;5059501;28;20031;-78
2023/12/11 05:07:16;;;;;;;23.45;5.32;;;11.50;83.40;;;;;;5046380;28;20022;-78
2023/12/11 05:09:42;;;;;;;22.40;4.40;;;11.50;83.60;;;;;;5039587;28;20024;-77
2023/12/11 05:12:08;;;;;;;19.35;3.97;;;11.50;83.40;;;;;;5043091;28;20470;-77
2023/12/11 05:14:33;;;;;;;21.70;4.55;;;11.50;83.30;;;;;;5037095;28;20057;-78
2023/12/11 05:16:59;;;;;;;19.42;4.53;;;11.50;83.50;;;;;;5028074;28;20079;-77
2023/12/11 05:19:25;;;;;;;30.15;5.93;;;11.40;83.60;;;;;;5034187;28;20076;-77
2023/12/11 05:21:51;;;;;;;25.85;4.60;;;11.40;83.80;;;;;;5037177;28;20236;-77
2023/12/11 05:24:16;;;;;;;21.48;4.75;;;11.30;84.10;;;;;;5039305;28;20014;-78
2023/12/11 05:26:42;;;;;;;25.42;4.88;;;11.30;84.60;;;;;;5035540;28;20033;-77
2023/12/11 05:29:08;;;;;;;23.17;5.10;;;11.30;84.90;;;;;;5037249;28;20071;-77
2023/12/11 05:31:33;;;;;;;28.05;5.07;;;11.30;85.40;;;;;;5033485;28;20038;-77
2023/12/11 05:33:59;;;;;;;31.05;5.63;;;11.30;85.90;;;;;;5033242;28;20023;-77
2023/12/11 05:36:25;;;;;;;30.90;6.25;;;11.20;86.50;;;;;;5036932;28;20052;-77
2023/12/11 05:38:51;;;;;;;33.30;6.25;;;11.10;87.10;;;;;;5033875;28;20022;-78
2023/12/11 05:41:17;;;;;;;29.77;6.55;;;11.10;87.60;;;;;;5033225;28;20036;-77
2023/12/11 05:43:43;;;;;;;34.83;6.50;;;11.00;88.20;;;;;;5039547;28;20025;-78
2023/12/11 05:46:09;;;;;;;32.65;6.47;;;11.00;88.50;;;;;;5040559;28;20036;-77
2023/12/11 05:48:34;;;;;;;28.95;5.90;;;11.00;88.70;;;;;;5039876;28;20025;-77
2023/12/11 05:51:00;;;;;;;28.45;5.63;;;11.00;89.00;;;;;;5037900;28;20500;-77
2023/12/11 05:53:26;;;;;;;32.42;6.55;;;10.90;89.40;;;;;;5043284;28;20406;-78
2023/12/11 05:55:51;;;;;;;26.63;6.57;;;10.90;89.30;;;;;;5033956;28;20044;-78
2023/12/11 05:58:17;;;;;;;30.23;8.02;;;11.00;89.40;;;;;;5033942;28;20029;-77
2023/12/11 06:00:44;;;;;;;36.10;7.53;;;11.10;89.20;;;;;;5036658;28;20040;-79
2023/12/11 06:03:10;;;;;;;33.22;6.30;;;11.10;89.10;;;;;;5041875;28;20405;-79
2023/12/11 06:05:36;;;;;;;32.15;7.07;;;11.00;88.80;;;;;;5044426;28;20033;-79
2023/12/11 06:08:02;;;;;;;35.15;7.68;;;11.10;88.70;;;;;;5048321;28;20028;-78
2023/12/11 06:10:27;;;;;;;28.38;6.45;;;11.10;88.70;;;;;;5041075;28;20187;-79
2023/12/11 06:12:53;;;;;;;27.00;5.30;;;11.10;88.40;;;;;;5039167;28;20109;-79
2023/12/11 06:15:19;;;;;;;27.05;5.40;;;11.10;88.10;;;;;;5031374;28;20035;-79
2023/12/11 06:17:44;;;;;;;27.77;5.65;;;11.10;88.00;;;;;;5039672;28;20036;-79
2023/12/11 06:20:10;;;;;;;26.33;5.65;;;11.10;87.70;;;;;;5040491;28;20041;-79
2023/12/11 06:22:36;;;;;;;27.38;6.05;;;11.10;87.60;;;;;;5053807;28;20031;-79
2023/12/11 06:25:02;;;;;;;28.85;5.72;;;11.10;87.30;;;;;;5033063;28;20032;-79
2023/12/11 06:27:28;;;;;;;24.98;4.93;;;11.10;87.30;;;;;;5031748;28;20037;-79
2023/12/11 06:29:54;;;;;;;25.25;5.57;;;11.10;87.00;;;;;;5047281;28;20094;-79
2023/12/11 06:32:20;;;;;;;25.55;5.28;;;11.10;86.60;;;;;;5034101;28;20470;-77
2023/12/11 06:34:45;;;;;;;21.08;4.65;;;11.10;86.40;;;;;;5035264;28;20090;-76
2023/12/11 06:37:11;;;;;;;21.88;4.57;;;11.10;86.00;;;;;;5034167;28;20113;-78
2023/12/11 06:39:37;;;;;;;26.00;5.03;;;11.20;86.00;;;;;;5039914;28;20291;-78
2023/12/11 06:42:03;;;;;;;27.95;4.90;;;11.10;86.10;;;;;;5040504;28;20518;-77
2023/12/11 06:44:29;;;;;;;19.90;4.43;;;11.10;86.00;;;;;;5041671;28;20071;-77
2023/12/11 06:46:54;;;;;;;23.45;4.97;;;11.10;86.00;;;;;;5034605;28;20025;-77
2023/12/11 06:49:20;;;;;;;32.00;6.93;;;11.20;85.70;;;;;;5036190;28;20030;-77
2023/12/11 06:51:46;;;;;;;24.50;5.03;;;11.20;85.60;;;;;;5035707;28;20045;-77
2023/12/11 06:54:12;;;;;;;24.42;5.30;;;11.20;85.40;;;;;;5039973;28;20044;-77
2023/12/11 06:56:38;;;;;;;19.65;4.63;;;11.20;85.50;;;;;;5036674;28;20076;-77
2023/12/11 06:59:04;;;;;;;30.20;5.30;;;11.20;85.50;;;;;;5041230;28;20079;-77
2023/12/11 07:01:31;;;;;;;22.73;4.40;;;11.20;85.70;;;;;;5037226;28;20460;-77
2023/12/11 07:03:57;;;;;;;24.35;5.25;;;11.20;85.60;;;;;;5036014;28;20032;-77
2023/12/11 07:06:22;;;;;;;20.80;4.93;;;11.30;85.20;;;;;;5027808;28;20394;-77
2023/12/11 07:08:49;;;;;;;27.02;5.13;;;11.30;85.30;;;;;;5038665;28;20025;-73
2023/12/11 07:11:15;;;;;;;22.35;4.82;;;11.30;85.10;;;;;;5037234;28;20171;-72
2023/12/11 07:13:44;;;;;;;21.30;4.65;;;11.30;84.90;;;;;;5036651;28;20107;-74
2023/12/11 07:16:10;;;;;;;23.30;4.60;;;11.30;84.80;;;;;;5032237;28;20040;-72
2023/12/11 07:18:36;;;;;;;24.08;4.82;;;11.30;85.00;;;;;;5036751;28;20059;-75
2023/12/11 07:21:06;;;;;;;25.65;4.40;;;11.20;85.10;;;;;;5026095;28;20543;-73
2023/12/11 07:23:32;;;;;;;20.23;4.68;;;11.30;85.30;;;;;;5029839;28;20029;-73
2023/12/11 07:25:57;;;;;;;22.38;4.70;;;11.30;85.20;;;;;;5036738;28;20127;-73
2023/12/11 07:28:23;;;;;;;23.17;4.85;;;11.30;85.10;;;;;;5034164;28;20537;-72
2023/12/11 07:30:48;;;;;;;17.95;4.32;;;11.20;85.40;;;;;;5036867;28;20060;-74
2023/12/11 07:33:14;;;;;;;19.73;3.90;;;11.30;85.40;;;;;;5039237;28;20021;-74
2023/12/11 07:35:40;;;;;;;17.75;4.20;;;11.30;85.10;;;;;;5035648;28;20064;-73
2023/12/11 07:38:06;;;;;;;22.15;4.70;;;11.20;85.30;;;;;;5041322;28;20025;-73
2023/12/11 07:40:31;;;;;;;20.15;3.67;;;11.20;85.50;;;;;;5033031;28;20099;-73
2023/12/11 07:42:57;;;;;;;21.98;5.13;;;11.30;85.40;;;;;;5032623;28;20021;-75
2023/12/11 07:45:24;;;;;;;18.13;4.68;;;11.30;85.30;;;;;;5030391;28;20575;-75
2023/12/11 07:47:49;;;;;;;20.67;4.10;;;11.30;85.50;;;;;;5030057;28;20425;-73
2023/12/11 07:50:15;;;;;;;21.73;4.47;;;11.30;85.60;;;;;;5021963;28;20040;-75
2023/12/11 07:52:41;;;;;;;18.92;4.65;;;11.20;85.50;;;;;;5034027;28;20105;-77
2023/12/11 07:55:07;;;;;;;19.52;5.22;;;11.20;85.80;;;;;;5048229;28;20138;-74
2023/12/11 07:57:33;;;;;;;21.83;4.68;;;11.30;85.60;;;;;;5039425;28;20643;-75
2023/12/11 07:59:59;;;;;;;22.10;3.85;;;11.30;85.60;;;;;;5035545;28;20043;-74
2023/12/11 08:02:25;;;;;;;18.30;4.07;;;11.30;85.60;;;;;;5041570;28;20055;-74
2023/12/11 08:04:51;;;;;;;21.48;4.55;;;11.30;85.90;;;;;;5033785;28;20421;-77
2023/12/11 08:07:18;;;;;;;18.80;4.18;;;11.30;85.90;;;;;;5036762;28;20474;-74
2023/12/11 08:09:44;;;;;;;18.15;4.03;;;11.30;86.00;;;;;;5029124;28;20025;-75
2023/12/11 08:12:10;;;;;;;16.33;3.78;;;11.20;86.00;;;;;;5031453;28;20097;-75
2023/12/11 08:14:39;;;;;;;17.95;4.15;;;11.30;85.70;;;;;;5027763;28;20441;-73
2023/12/11 08:17:06;;;;;;;17.80;4.05;;;11.30;85.40;;;;;;5031852;28;20101;-73
2023/12/11 08:19:35;;;;;;;23.88;5.55;;;11.30;85.50;;;;;;5033459;28;20025;-74
2023/12/11 08:22:01;;;;;;;18.33;5.40;;;11.30;85.40;;;;;;5037609;28;20377;-74
2023/12/11 08:24:27;;;;;;;21.98;4.68;;;11.30;85.30;;;;;;5035404;28;20025;-76
2023/12/11 08:26:52;;;;;;;20.23;4.45;;;11.30;85.20;;;;;;5040668;28;20538;-75
2023/12/11 08:29:19;;;;;;;21.65;3.53;;;11.30;85.20;;;;;;5028818;28;20071;-74
2023/12/11 08:31:45;;;;;;;20.42;3.83;;;11.50;84.70;;;;;;5030964;28;20163;-74
2023/12/11 08:34:11;;;;;;;18.63;3.90;;;11.50;84.90;;;;;;5032078;28;20017;-75
2023/12/11 08:36:36;;;;;;;15.30;3.88;;;11.40;85.10;;;;;;5027950;28;20049;-77
2023/12/11 08:39:03;;;;;;;17.83;4.15;;;11.40;85.10;;;;;;5035386;28;20055;-76
2023/12/11 08:41:29;;;;;;;15.55;3.83;;;11.30;85.20;;;;;;5037530;28;20041;-74
2023/12/11 08:43:55;;;;;;;16.55;3.80;;;11.30;85.20;;;;;;5039212;28;20036;-76
2023/12/11 08:46:22;;;;;;;18.65;3.83;;;11.40;85.40;;;;;;5032848;28;20067;-73
2023/12/11 08:48:48;;;;;;;17.80;3.38;;;11.40;85.40;;;;;;5026267;28;20120;-75
2023/12/11 08:51:18;;;;;;;15.85;3.97;;;11.40;85.40;;;;;;5027533;28;20572;-76
2023/12/11 08:53:44;;;;;;;18.13;3.55;;;11.50;85.20;;;;;;5034957;28;20024;-74
2023/12/11 08:56:10;;;;;;;19.52;3.78;;;11.40;85.20;;;;;;5029334;28;20037;-76
2023/12/11 08:58:36;;;;;;;21.45;3.90;;;11.40;85.20;;;;;;5025456;28;20489;-75
2023/12/11 09:01:03;;;;;;;12.77;3.53;;;11.50;85.30;;;;;;5033680;28;20037;-74
2023/12/11 09:03:29;;;;;;;19.25;4.57;;;11.50;85.30;;;;;;5031195;28;20038;-73
2023/12/11 09:05:55;;;;;;;24.15;4.72;;;11.50;85.50;;;;;;5037773;28;20099;-73
2023/12/11 09:08:21;;;;;;;20.42;4.40;;;11.50;85.70;;;;;;5036028;28;20405;-72
2023/12/11 09:10:47;;;;;;;21.67;4.68;;;11.50;85.60;;;;;;5026499;28;20029;-75
2023/12/11 09:13:12;;;;;;;20.65;4.88;;;11.60;85.70;;;;;;5037828;28;20367;-73
2023/12/11 09:15:38;;;;;;;18.70;4.63;;;11.60;86.00;;;;;;5032175;28;20477;-73
2023/12/11 09:18:06;;;;;;;23.10;6.25;;;11.60;86.00;;;;;;5033346;28;20482;-73
2023/12/11 09:20:31;;;;;;;21.90;4.50;;;11.60;86.40;;;;;;5037280;28;20531;-73
2023/12/11 09:22:57;;;;;;;19.45;5.05;;;11.60;86.50;;;;;;5040358;28;20385;-73
2023/12/11 09:25:23;;;;;;;21.25;4.78;;;11.60;86.40;;;;;;5044840;28;20061;-73
2023/12/11 09:27:48;;;;;;;20.85;5.93;;;11.50;86.60;;;;;;5030011;28;20083;-76
2023/12/11 09:30:17;;;;;;;19.95;4.93;;;11.50;86.60;;;;;;5036913;28;20026;-75
2023/12/11 09:32:43;;;;;;;18.13;5.32;;;11.50;86.70;;;;;;5039116;28;20328;-73
2023/12/11 09:35:09;;;;;;;16.15;4.28;;;11.50;86.70;;;;;;5035404;28;21291;-73
2023/12/11 09:37:35;;;;;;;23.20;4.60;;;11.50;86.60;;;;;;5030175;28;20033;-72
2023/12/11 09:40:01;;;;;;;17.88;4.70;;;11.60;86.30;;;;;;5033612;28;20042;-73
2023/12/11 09:42:27;;;;;;;20.33;4.47;;;11.60;86.30;;;;;;5037816;28;20382;-72
2023/12/11 09:44:54;;;;;;;17.52;5.05;;;11.60;86.30;;;;;;5032610;28;20033;-73
2023/12/11 09:47:31;;;;;;;21.25;5.18;;;11.60;86.40;;;;;;5038122;28;20020;-72
2023/12/11 09:49:57;;;;;;;17.30;5.05;;;11.60;86.40;;;;;;5041274;28;20044;-73
2023/12/11 09:52:23;;;;;;;17.45;4.72;;;11.60;86.10;;;;;;5050436;28;20017;-74
2023/12/11 09:54:49;;;;;;;16.85;4.38;;;11.60;86.20;;;;;;5050832;28;20040;-74
2023/12/11 09:57:16;;;;;;;21.48;4.82;;;11.60;86.40;;;;;;5046997;28;20105;-74
2023/12/11 09:59:42;;;;;;;23.40;4.10;;;11.60;86.30;;;;;;5037358;28;20140;-74
2023/12/11 10:02:16;;;;;;;19.88;4.28;;;11.60;86.00;;;;;;5034266;28;20017;-74
2023/12/11 10:05:01;;;;;;;19.33;4.30;;;11.60;86.10;;;;;;5046980;28;20048;-72
2023/12/11 10:07:27;;;;;;;19.52;4.07;;;11.60;86.00;;;;;;5037477;28;20030;-75
2023/12/11 10:09:53;;;;;;;20.08;5.43;;;11.60;86.00;;;;;;5034170;28;20036;-74
2023/12/11 10:12:18;;;;;;;19.30;5.15;;;11.60;86.10;;;;;;5036316;28;20040;-72
2023/12/11 10:15:02;;;;;;;16.27;3.60;;;11.70;86.20;;;;;;5033941;28;20032;-73
2023/12/11 10:17:29;;;;;;;17.67;4.85;;;11.70;86.10;;;;;;5028627;28;20041;-74
2023/12/11 10:19:55;;;;;;;16.05;4.10;;;11.80;85.70;;;;;;5027872;28;20338;-73
2023/12/11 10:22:29;;;;;;;17.20;4.45;;;11.80;86.00;;;;;;5031385;28;20029;-74
2023/12/11 10:24:55;;;;;;;22.98;4.53;;;11.90;86.00;;;;;;5030635;28;20485;-74
2023/12/11 10:27:25;;;;;;;15.73;4.07;;;11.80;86.10;;;;;;5036674;28;20075;-75
2023/12/11 10:30:10;;;;;;;18.45;4.20;;;11.90;85.60;;;;;;5038338;28;20033;-74
2023/12/11 10:32:37;;;;;;;17.60;4.10;;;11.80;85.90;;;;;;5039279;28;20025;-74
2023/12/11 10:35:02;;;;;;;17.08;4.63;;;11.80;85.90;;;;;;5034562;28;20477;-74
2023/12/11 10:37:34;;;;;;;18.02;4.75;;;11.90;86.10;;;;;;5033698;28;20047;-75
2023/12/11 10:40:00;;;;;;;19.85;4.38;;;11.80;86.20;;;;;;5027718;28;20061;-73
2023/12/11 10:42:27;;;;;;;22.50;4.60;;;11.80;86.10;;;;;;5027548;28;20108;-73
2023/12/11 10:44:54;;;;;;;17.40;4.10;;;11.80;86.10;;;;;;5032690;28;20029;-74
2023/12/11 10:47:20;;;;;;;14.57;4.57;;;11.80;86.10;;;;;;5037445;28;20284;-72
2023/12/11 10:49:46;;;;;;;19.95;4.28;;;11.80;86.20;;;;;;5026693;28;20028;-73
2023/12/11 10:52:12;;;;;;;18.75;4.30;;;11.80;86.20;;;;;;5031783;28;20029;-75
2023/12/11 10:54:38;;;;;;;17.38;4.15;;;11.70;86.40;;;;;;5033229;28;20017;-74
2023/12/11 10:57:08;;;;;;;23.05;4.20;;;11.60;86.70;;;;;;5029721;28;20413;-74
2023/12/11 10:59:35;;;;;;;19.77;4.05;;;11.70;86.40;;;;;;5034608;28;20036;-74
2023/12/11 11:02:02;;;;;;;17.98;3.95;;;11.70;86.40;;;;;;5029403;28;20017;-73
2023/12/11 11:04:33;;;;;;;19.67;3.85;;;11.90;86.20;;;;;;5025357;28;20107;-73
2023/12/11 11:07:11;;;;;;;18.67;4.30;;;11.90;86.40;;;;;;5037699;28;20025;-74
2023/12/11 11:09:59;;;;;;;22.17;4.30;;;11.90;86.40;;;;;;5025662;28;20033;-74
2023/12/11 11:12:34;;;;;;;19.98;4.55;;;11.90;86.40;;;;;;5033768;28;20040;-73
2023/12/11 11:15:00;;;;;;;14.30;4.45;;;12.00;86.00;;;;;;5031472;28;20057;-72
2023/12/11 11:18:05;;;;;;;15.98;4.30;;;12.00;85.90;;;;;;5030558;28;20091;-74
2023/12/11 11:20:34;;;;;;;17.57;3.90;;;12.00;86.00;;;;;;5038063;28;20106;-73
2023/12/11 11:23:15;;;;;;;15.15;3.67;;;12.00;86.10;;;;;;5028786;28;20639;-74
2023/12/11 11:25:50;;;;;;;15.65;3.83;;;12.10;86.10;;;;;;5023409;28;20041;-74
2023/12/11 11:28:38;;;;;;;15.40;4.55;;;12.10;86.20;;;;;;5034495;28;20256;-74
2023/12/11 11:31:05;;;;;;;21.67;4.53;;;12.10;85.80;;;;;;5037610;28;20076;-74
2023/12/11 11:33:52;;;;;;;18.65;4.13;;;12.10;85.60;;;;;;5028084;28;20421;-73
2023/12/11 11:36:19;;;;;;;20.25;6.05;;;12.10;85.60;;;;;;5033956;28;20455;-74
2023/12/11 11:38:58;;;;;;;23.23;4.25;;;12.30;85.70;;;;;;5028368;28;20112;-74
2023/12/11 11:41:29;;;;;;;19.77;5.18;;;12.40;85.10;;;;;;5028716;28;20131;-73
2023/12/11 11:43:58;;;;;;;17.73;4.40;;;12.60;84.60;;;;;;5030686;28;20390;-74
2023/12/11 11:46:25;;;;;;;18.20;3.80;;;12.50;84.50;;;;;;5027857;28;20533;-74
2023/12/11 11:48:51;;;;;;;22.70;4.00;;;12.70;84.60;;;;;;5034316;28;20029;-74
2023/12/11 11:51:17;;;;;;;17.08;3.78;;;12.70;84.00;;;;;;5040306;28;20029;-71
2023/12/11 11:53:46;;;;;;;15.90;3.50;;;12.80;84.30;;;;;;5035150;28;20104;-74
2023/12/11 11:56:11;;;;;;;16.67;3.90;;;12.60;84.30;;;;;;5036975;28;20677;-72
2023/12/11 11:58:37;;;;;;;13.25;3.53;;;12.60;84.50;;;;;;5022186;28;20093;-76
2023/12/11 12:01:05;;;;;;;19.55;4.10;;;12.50;84.50;;;;;;5036096;28;20383;-75
2023/12/11 12:03:43;;;;;;;18.35;4.35;;;12.50;84.40;;;;;;5033384;28;20056;-73
2023/12/11 12:06:10;;;;;;;17.02;4.30;;;12.40;84.40;;;;;;5026693;28;20028;-74
2023/12/11 12:08:41;;;;;;;24.45;3.95;;;12.50;84.50;;;;;;5032869;28;20473;-74
2023/12/11 12:11:07;;;;;;;13.80;3.63;;;12.50;84.90;;;;;;5019517;28;20042;-75
2023/12/11 12:13:38;;;;;;;15.20;3.33;;;12.50;84.50;;;;;;5041956;28;20039;-73
2023/12/11 12:16:04;;;;;;;16.30;3.88;;;12.40;84.40;;;;;;5038271;28;20037;-73
2023/12/11 12:18:30;;;;;;;17.65;4.25;;;12.40;84.70;;;;;;5042245;28;20079;-73
2023/12/11 12:21:04;;;;;;;19.40;4.57;;;12.40;84.70;;;;;;5039698;28;20113;-73
2023/12/11 12:23:31;;;;;;;18.75;4.45;;;12.30;84.70;;;;;;5033053;28;20458;-73
2023/12/11 12:25:59;;;;;;;14.38;3.30;;;12.30;84.60;;;;;;5039010;28;20029;-74
2023/12/11 12:28:26;;;;;;;13.48;3.50;;;12.40;84.40;;;;;;5032058;28;20025;-73
2023/12/11 12:30:52;;;;;;;15.07;3.33;;;12.40;84.50;;;;;;5032792;28;20462;-74
2023/12/11 12:33:18;;;;;;;14.38;2.95;;;12.20;84.30;;;;;;5039320;28;20583;-74